KRHI/RHI METAR and TAF weather

Enter ICAO airport designator
Station Type Date Time Source
KRHI METAR 2024/07/23 17:53 UTC NOAA

KRHI 231753Z AUTO 04004KT 10SM OVC007 16/14 A3008 RMK AO2 SLP186 60000 T01610139 10167 20144 53007


Station Type Date Time Source
KRHI Decoded METAR 2024/07/23 17:53 UTC NOAA

RHINELANDER-ONEIDA CO AIRPORT , WI, United States (KRHI) 45-38N 89-29W 485M
Jul 23, 2024 - 01:53 PM EDT / 2024.07.23 1753 UTC
Wind: from the NE (040 degrees) at 5 MPH (4 KT):0
Visibility: 10 mile(s):0
Sky conditions: overcast
Temperature: 61.0 F (16.1 C)
Dew Point: 57.0 F (13.9 C)
Relative Humidity: 86%
Pressure (altimeter): 30.08 in. Hg (1018 hPa)
Pressure tendency: 0.02 inches (0.7 hPa) higher than three hours ago
ob: KRHI 231753Z AUTO 04004KT 10SM OVC007 16/14 A3008 RMK AO2 SLP186 60000 T01610139 10167 20144 53007
cycle: 18

Station Type Date Time Source
KRHI TAF 2024/07/23 18:22 UTC NOAA